sensor_id;sensor_type;location;lat;lon;timestamp;P1;durP1;ratioP1;P2;durP2;ratioP2
1699;SDS011;847;48.058;7.810;2023-03-31T00:00:24;5.90;;;3.30;;
1699;SDS011;847;48.058;7.810;2023-03-31T00:02:51;6.17;;;3.20;;
1699;SDS011;847;48.058;7.810;2023-03-31T00:05:20;9.53;;;3.77;;
1699;SDS011;847;48.058;7.810;2023-03-31T00:07:51;7.60;;;3.77;;
1699;SDS011;847;48.058;7.810;2023-03-31T00:10:18;11.00;;;3.40;;
1699;SDS011;847;48.058;7.810;2023-03-31T00:12:46;4.70;;;3.27;;
1699;SDS011;847;48.058;7.810;2023-03-31T00:15:13;6.20;;;3.07;;
1699;SDS011;847;48.058;7.810;2023-03-31T00:17:40;7.07;;;3.40;;
1699;SDS011;847;48.058;7.810;2023-03-31T00:20:07;8.53;;;3.50;;
1699;SDS011;847;48.058;7.810;2023-03-31T00:22:36;6.47;;;3.40;;
1699;SDS011;847;48.058;7.810;2023-03-31T00:25:08;9.00;;;4.13;;
1699;SDS011;847;48.058;7.810;2023-03-31T00:27:35;6.90;;;3.40;;
1699;SDS011;847;48.058;7.810;2023-03-31T00:30:01;7.30;;;4.10;;
1699;SDS011;847;48.058;7.810;2023-03-31T00:32:29;6.80;;;3.70;;
1699;SDS011;847;48.058;7.810;2023-03-31T00:34:57;8.70;;;4.30;;
1699;SDS011;847;48.058;7.810;2023-03-31T00:37:26;6.33;;;3.70;;
1699;SDS011;847;48.058;7.810;2023-03-31T00:39:53;5.13;;;3.50;;
1699;SDS011;847;48.058;7.810;2023-03-31T00:42:21;5.80;;;3.60;;
1699;SDS011;847;48.058;7.810;2023-03-31T00:47:51;7.00;;;3.80;;
1699;SDS011;847;48.058;7.810;2023-03-31T00:50:22;12.40;;;4.10;;
1699;SDS011;847;48.058;7.810;2023-03-31T00:52:53;4.93;;;4.40;;
1699;SDS011;847;48.058;7.810;2023-03-31T00:55:23;7.97;;;4.00;;
1699;SDS011;847;48.058;7.810;2023-03-31T00:57:56;7.63;;;4.10;;
1699;SDS011;847;48.058;7.810;2023-03-31T01:00:25;5.40;;;3.53;;
1699;SDS011;847;48.058;7.810;2023-03-31T01:02:54;4.00;;;3.47;;
1699;SDS011;847;48.058;7.810;2023-03-31T01:05:24;5.80;;;3.60;;
1699;SDS011;847;48.058;7.810;2023-03-31T01:07:54;5.03;;;3.73;;
1699;SDS011;847;48.058;7.810;2023-03-31T01:10:23;8.80;;;4.00;;
1699;SDS011;847;48.058;7.810;2023-03-31T01:12:51;7.90;;;4.50;;
1699;SDS011;847;48.058;7.810;2023-03-31T01:15:21;7.73;;;4.13;;
1699;SDS011;847;48.058;7.810;2023-03-31T01:17:48;6.87;;;4.00;;
1699;SDS011;847;48.058;7.810;2023-03-31T01:20:20;5.50;;;3.90;;
1699;SDS011;847;48.058;7.810;2023-03-31T01:29:07;4.00;;;3.53;;
1699;SDS011;847;48.058;7.810;2023-03-31T01:31:53;6.77;;;4.60;;
1699;SDS011;847;48.058;7.810;2023-03-31T01:34:48;7.70;;;4.73;;
1699;SDS011;847;48.058;7.810;2023-03-31T01:40:54;7.50;;;4.20;;
1699;SDS011;847;48.058;7.810;2023-03-31T01:43:39;8.87;;;4.43;;
1699;SDS011;847;48.058;7.810;2023-03-31T01:46:14;11.90;;;4.67;;
1699;SDS011;847;48.058;7.810;2023-03-31T01:48:47;9.33;;;5.33;;
1699;SDS011;847;48.058;7.810;2023-03-31T01:51:24;7.20;;;5.67;;
1699;SDS011;847;48.058;7.810;2023-03-31T01:53:59;9.03;;;4.13;;
1699;SDS011;847;48.058;7.810;2023-03-31T01:56:33;8.33;;;4.20;;
1699;SDS011;847;48.058;7.810;2023-03-31T01:59:06;9.10;;;4.00;;
1699;SDS011;847;48.058;7.810;2023-03-31T02:01:36;6.30;;;4.20;;
1699;SDS011;847;48.058;7.810;2023-03-31T02:04:07;7.83;;;4.90;;
1699;SDS011;847;48.058;7.810;2023-03-31T02:06:40;7.90;;;4.30;;
1699;SDS011;847;48.058;7.810;2023-03-31T02:09:12;7.67;;;4.30;;
1699;SDS011;847;48.058;7.810;2023-03-31T02:11:43;8.27;;;4.30;;
1699;SDS011;847;48.058;7.810;2023-03-31T02:14:13;6.83;;;4.53;;
1699;SDS011;847;48.058;7.810;2023-03-31T02:16:43;6.37;;;3.90;;
1699;SDS011;847;48.058;7.810;2023-03-31T02:19:14;9.00;;;4.83;;
1699;SDS011;847;48.058;7.810;2023-03-31T02:21:43;5.83;;;4.20;;
1699;SDS011;847;48.058;7.810;2023-03-31T02:24:13;7.87;;;5.17;;
1699;SDS011;847;48.058;7.810;2023-03-31T02:26:46;8.37;;;4.43;;
1699;SDS011;847;48.058;7.810;2023-03-31T02:29:17;9.37;;;4.57;;
1699;SDS011;847;48.058;7.810;2023-03-31T02:31:45;6.47;;;4.13;;
1699;SDS011;847;48.058;7.810;2023-03-31T02:34:17;7.40;;;4.97;;
1699;SDS011;847;48.058;7.810;2023-03-31T02:36:44;8.67;;;4.73;;
1699;SDS011;847;48.058;7.810;2023-03-31T02:39:12;5.57;;;4.47;;
1699;SDS011;847;48.058;7.810;2023-03-31T02:41:41;14.13;;;5.30;;
1699;SDS011;847;48.058;7.810;2023-03-31T02:44:10;6.17;;;4.17;;
1699;SDS011;847;48.058;7.810;2023-03-31T02:46:37;8.53;;;6.27;;
1699;SDS011;847;48.058;7.810;2023-03-31T02:49:05;8.50;;;4.50;;
1699;SDS011;847;48.058;7.810;2023-03-31T02:51:48;11.30;;;4.77;;
1699;SDS011;847;48.058;7.810;2023-03-31T02:54:42;7.07;;;4.37;;
1699;SDS011;847;48.058;7.810;2023-03-31T02:57:29;8.47;;;4.10;;
1699;SDS011;847;48.058;7.810;2023-03-31T03:00:08;10.27;;;5.10;;
1699;SDS011;847;48.058;7.810;2023-03-31T03:02:48;6.33;;;4.60;;
1699;SDS011;847;48.058;7.810;2023-03-31T03:05:27;5.93;;;4.80;;
1699;SDS011;847;48.058;7.810;2023-03-31T03:08:04;6.73;;;4.57;;
1699;SDS011;847;48.058;7.810;2023-03-31T03:10:42;5.83;;;4.53;;
1699;SDS011;847;48.058;7.810;2023-03-31T03:13:18;4.70;;;4.20;;
1699;SDS011;847;48.058;7.810;2023-03-31T03:15:55;7.07;;;4.43;;
1699;SDS011;847;48.058;7.810;2023-03-31T03:18:29;7.43;;;4.50;;
1699;SDS011;847;48.058;7.810;2023-03-31T03:20:55;5.03;;;4.43;;
1699;SDS011;847;48.058;7.810;2023-03-31T03:23:22;7.73;;;4.50;;
1699;SDS011;847;48.058;7.810;2023-03-31T03:25:49;9.33;;;5.10;;
1699;SDS011;847;48.058;7.810;2023-03-31T03:28:16;5.87;;;4.67;;
1699;SDS011;847;48.058;7.810;2023-03-31T03:30:43;7.60;;;4.60;;
1699;SDS011;847;48.058;7.810;2023-03-31T03:33:11;9.40;;;5.07;;
1699;SDS011;847;48.058;7.810;2023-03-31T03:35:41;6.90;;;4.27;;
1699;SDS011;847;48.058;7.810;2023-03-31T03:38:07;10.30;;;4.73;;
1699;SDS011;847;48.058;7.810;2023-03-31T03:40:34;5.87;;;4.40;;
1699;SDS011;847;48.058;7.810;2023-03-31T03:43:01;9.30;;;4.87;;
1699;SDS011;847;48.058;7.810;2023-03-31T03:45:28;8.40;;;5.10;;
1699;SDS011;847;48.058;7.810;2023-03-31T03:47:54;5.30;;;4.53;;
1699;SDS011;847;48.058;7.810;2023-03-31T03:50:22;4.93;;;4.53;;
1699;SDS011;847;48.058;7.810;2023-03-31T03:52:49;5.17;;;4.50;;
1699;SDS011;847;48.058;7.810;2023-03-31T03:55:16;7.30;;;4.60;;
1699;SDS011;847;48.058;7.810;2023-03-31T03:57:43;9.83;;;5.00;;
1699;SDS011;847;48.058;7.810;2023-03-31T04:00:10;7.40;;;4.50;;
1699;SDS011;847;48.058;7.810;2023-03-31T04:02:37;6.03;;;4.43;;
1699;SDS011;847;48.058;7.810;2023-03-31T04:05:04;7.93;;;5.07;;
1699;SDS011;847;48.058;7.810;2023-03-31T04:07:32;6.77;;;4.70;;
1699;SDS011;847;48.058;7.810;2023-03-31T04:09:59;8.67;;;4.90;;
1699;SDS011;847;48.058;7.810;2023-03-31T04:12:26;8.87;;;4.87;;
1699;SDS011;847;48.058;7.810;2023-03-31T04:14:52;7.83;;;4.93;;
1699;SDS011;847;48.058;7.810;2023-03-31T04:17:19;7.60;;;4.90;;
1699;SDS011;847;48.058;7.810;2023-03-31T04:19:56;8.53;;;4.90;;
1699;SDS011;847;48.058;7.810;2023-03-31T04:22:25;7.53;;;4.90;;
1699;SDS011;847;48.058;7.810;2023-03-31T04:24:54;8.67;;;5.00;;
1699;SDS011;847;48.058;7.810;2023-03-31T04:27:22;11.10;;;4.87;;
1699;SDS011;847;48.058;7.810;2023-03-31T04:29:51;6.63;;;5.13;;
1699;SDS011;847;48.058;7.810;2023-03-31T04:32:18;9.93;;;5.90;;
1699;SDS011;847;48.058;7.810;2023-03-31T04:34:46;7.80;;;5.70;;
1699;SDS011;847;48.058;7.810;2023-03-31T04:37:14;11.80;;;6.50;;
1699;SDS011;847;48.058;7.810;2023-03-31T04:39:41;11.43;;;7.93;;
1699;SDS011;847;48.058;7.810;2023-03-31T04:42:12;8.17;;;4.73;;
1699;SDS011;847;48.058;7.810;2023-03-31T04:44:39;10.33;;;5.50;;
1699;SDS011;847;48.058;7.810;2023-03-31T04:47:05;11.90;;;5.70;;
1699;SDS011;847;48.058;7.810;2023-03-31T04:49:32;9.70;;;5.70;;
1699;SDS011;847;48.058;7.810;2023-03-31T04:51:59;10.10;;;5.30;;
1699;SDS011;847;48.058;7.810;2023-03-31T04:54:27;5.33;;;4.50;;
1699;SDS011;847;48.058;7.810;2023-03-31T04:56:54;8.43;;;5.60;;
1699;SDS011;847;48.058;7.810;2023-03-31T04:59:22;5.50;;;5.00;;
1699;SDS011;847;48.058;7.810;2023-03-31T05:01:51;9.63;;;5.83;;
1699;SDS011;847;48.058;7.810;2023-03-31T05:04:18;8.27;;;5.20;;
1699;SDS011;847;48.058;7.810;2023-03-31T05:06:45;9.20;;;5.83;;
1699;SDS011;847;48.058;7.810;2023-03-31T05:09:11;8.20;;;6.10;;
1699;SDS011;847;48.058;7.810;2023-03-31T05:11:38;7.67;;;5.60;;
1699;SDS011;847;48.058;7.810;2023-03-31T05:14:05;9.57;;;5.17;;
1699;SDS011;847;48.058;7.810;2023-03-31T05:16:33;10.37;;;4.77;;
1699;SDS011;847;48.058;7.810;2023-03-31T05:19:00;11.37;;;5.20;;
1699;SDS011;847;48.058;7.810;2023-03-31T05:21:27;9.13;;;6.07;;
1699;SDS011;847;48.058;7.810;2023-03-31T05:23:54;12.33;;;6.37;;
1699;SDS011;847;48.058;7.810;2023-03-31T05:26:22;9.70;;;5.43;;
1699;SDS011;847;48.058;7.810;2023-03-31T05:28:49;11.00;;;5.93;;
1699;SDS011;847;48.058;7.810;2023-03-31T05:31:16;10.07;;;5.27;;
1699;SDS011;847;48.058;7.810;2023-03-31T05:33:44;11.90;;;6.90;;
1699;SDS011;847;48.058;7.810;2023-03-31T05:36:12;13.80;;;6.47;;
1699;SDS011;847;48.058;7.810;2023-03-31T05:38:40;11.80;;;5.47;;
1699;SDS011;847;48.058;7.810;2023-03-31T05:41:08;7.57;;;6.00;;
1699;SDS011;847;48.058;7.810;2023-03-31T05:43:36;9.83;;;5.77;;
1699;SDS011;847;48.058;7.810;2023-03-31T05:46:03;11.23;;;6.53;;
1699;SDS011;847;48.058;7.810;2023-03-31T05:48:30;9.93;;;6.07;;
1699;SDS011;847;48.058;7.810;2023-03-31T05:50:59;9.23;;;5.73;;
1699;SDS011;847;48.058;7.810;2023-03-31T05:53:26;12.60;;;6.20;;
1699;SDS011;847;48.058;7.810;2023-03-31T05:55:56;9.33;;;7.03;;
1699;SDS011;847;48.058;7.810;2023-03-31T05:58:25;8.57;;;5.90;;
1699;SDS011;847;48.058;7.810;2023-03-31T06:01:01;15.20;;;7.30;;
1699;SDS011;847;48.058;7.810;2023-03-31T06:03:31;9.20;;;6.60;;
1699;SDS011;847;48.058;7.810;2023-03-31T06:05:59;8.60;;;5.60;;
1699;SDS011;847;48.058;7.810;2023-03-31T06:08:27;6.50;;;2.90;;
1699;SDS011;847;48.058;7.810;2023-03-31T06:10:54;4.57;;;2.93;;
1699;SDS011;847;48.058;7.810;2023-03-31T06:13:21;7.50;;;5.10;;
1699;SDS011;847;48.058;7.810;2023-03-31T06:15:52;5.80;;;3.60;;
1699;SDS011;847;48.058;7.810;2023-03-31T06:18:21;4.90;;;3.87;;
1699;SDS011;847;48.058;7.810;2023-03-31T06:20:47;3.43;;;2.80;;
1699;SDS011;847;48.058;7.810;2023-03-31T06:23:17;5.83;;;3.50;;
1699;SDS011;847;48.058;7.810;2023-03-31T06:25:44;6.50;;;3.07;;
1699;SDS011;847;48.058;7.810;2023-03-31T06:28:11;6.53;;;3.43;;
1699;SDS011;847;48.058;7.810;2023-03-31T06:30:39;5.90;;;3.40;;
1699;SDS011;847;48.058;7.810;2023-03-31T06:33:06;7.17;;;3.33;;
1699;SDS011;847;48.058;7.810;2023-03-31T06:35:36;4.60;;;3.03;;
1699;SDS011;847;48.058;7.810;2023-03-31T06:38:03;4.20;;;2.60;;
1699;SDS011;847;48.058;7.810;2023-03-31T06:40:31;4.10;;;2.30;;
1699;SDS011;847;48.058;7.810;2023-03-31T06:42:58;6.03;;;2.60;;
1699;SDS011;847;48.058;7.810;2023-03-31T06:45:25;6.60;;;3.00;;
1699;SDS011;847;48.058;7.810;2023-03-31T06:47:52;6.40;;;3.80;;
1699;SDS011;847;48.058;7.810;2023-03-31T06:50:19;4.80;;;3.67;;
1699;SDS011;847;48.058;7.810;2023-03-31T06:52:45;4.80;;;3.67;;
1699;SDS011;847;48.058;7.810;2023-03-31T06:55:12;6.03;;;3.10;;
1699;SDS011;847;48.058;7.810;2023-03-31T06:57:41;4.40;;;3.03;;
1699;SDS011;847;48.058;7.810;2023-03-31T07:00:08;4.40;;;3.37;;
1699;SDS011;847;48.058;7.810;2023-03-31T07:02:36;3.20;;;2.90;;
1699;SDS011;847;48.058;7.810;2023-03-31T07:05:03;3.77;;;2.40;;
1699;SDS011;847;48.058;7.810;2023-03-31T07:07:31;3.80;;;2.10;;
1699;SDS011;847;48.058;7.810;2023-03-31T07:09:58;5.20;;;2.30;;
1699;SDS011;847;48.058;7.810;2023-03-31T07:12:25;4.20;;;1.97;;
1699;SDS011;847;48.058;7.810;2023-03-31T07:14:53;4.13;;;2.43;;
1699;SDS011;847;48.058;7.810;2023-03-31T07:17:20;3.70;;;2.20;;
1699;SDS011;847;48.058;7.810;2023-03-31T07:19:49;2.97;;;1.87;;
1699;SDS011;847;48.058;7.810;2023-03-31T07:22:17;5.33;;;2.30;;
1699;SDS011;847;48.058;7.810;2023-03-31T07:24:44;4.30;;;1.97;;
1699;SDS011;847;48.058;7.810;2023-03-31T07:27:11;4.07;;;2.10;;
1699;SDS011;847;48.058;7.810;2023-03-31T07:29:38;2.13;;;1.40;;
1699;SDS011;847;48.058;7.810;2023-03-31T07:32:06;3.27;;;1.70;;
1699;SDS011;847;48.058;7.810;2023-03-31T07:34:33;2.00;;;1.20;;
1699;SDS011;847;48.058;7.810;2023-03-31T07:37:00;1.23;;;1.13;;
1699;SDS011;847;48.058;7.810;2023-03-31T07:39:27;5.33;;;1.43;;
1699;SDS011;847;48.058;7.810;2023-03-31T07:41:53;3.20;;;1.80;;
1699;SDS011;847;48.058;7.810;2023-03-31T07:44:20;2.40;;;1.93;;
1699;SDS011;847;48.058;7.810;2023-03-31T07:46:47;1.93;;;1.77;;
1699;SDS011;847;48.058;7.810;2023-03-31T07:49:15;2.07;;;1.20;;
1699;SDS011;847;48.058;7.810;2023-03-31T07:51:42;2.20;;;1.67;;
1699;SDS011;847;48.058;7.810;2023-03-31T07:54:09;1.70;;;1.47;;
1699;SDS011;847;48.058;7.810;2023-03-31T07:56:35;3.63;;;1.60;;
1699;SDS011;847;48.058;7.810;2023-03-31T07:59:02;1.33;;;1.23;;
1699;SDS011;847;48.058;7.810;2023-03-31T08:01:29;2.27;;;2.07;;
1699;SDS011;847;48.058;7.810;2023-03-31T08:03:56;1.93;;;1.77;;
1699;SDS011;847;48.058;7.810;2023-03-31T08:06:24;5.00;;;1.80;;
1699;SDS011;847;48.058;7.810;2023-03-31T08:08:51;2.50;;;1.47;;
1699;SDS011;847;48.058;7.810;2023-03-31T08:11:18;2.23;;;1.60;;
1699;SDS011;847;48.058;7.810;2023-03-31T08:13:45;3.93;;;1.93;;
1699;SDS011;847;48.058;7.810;2023-03-31T08:16:12;3.77;;;2.47;;
1699;SDS011;847;48.058;7.810;2023-03-31T08:18:39;4.33;;;2.70;;
1699;SDS011;847;48.058;7.810;2023-03-31T08:21:06;3.17;;;1.90;;
1699;SDS011;847;48.058;7.810;2023-03-31T08:23:36;1.57;;;1.33;;
1699;SDS011;847;48.058;7.810;2023-03-31T08:26:09;3.53;;;2.23;;
1699;SDS011;847;48.058;7.810;2023-03-31T08:28:37;6.93;;;6.17;;
1699;SDS011;847;48.058;7.810;2023-03-31T08:31:04;3.00;;;2.27;;
1699;SDS011;847;48.058;7.810;2023-03-31T08:33:32;4.40;;;2.40;;
1699;SDS011;847;48.058;7.810;2023-03-31T08:36:00;3.30;;;1.90;;
1699;SDS011;847;48.058;7.810;2023-03-31T08:38:28;2.37;;;1.30;;
1699;SDS011;847;48.058;7.810;2023-03-31T08:41:00;4.17;;;1.23;;
1699;SDS011;847;48.058;7.810;2023-03-31T08:43:29;8.20;;;1.90;;
1699;SDS011;847;48.058;7.810;2023-03-31T08:45:58;6.73;;;2.50;;
1699;SDS011;847;48.058;7.810;2023-03-31T08:48:28;3.87;;;2.13;;
1699;SDS011;847;48.058;7.810;2023-03-31T08:50:59;4.17;;;1.70;;
1699;SDS011;847;48.058;7.810;2023-03-31T08:53:30;7.80;;;2.10;;
1699;SDS011;847;48.058;7.810;2023-03-31T08:56:01;13.60;;;3.47;;
1699;SDS011;847;48.058;7.810;2023-03-31T08:58:34;6.43;;;1.80;;
1699;SDS011;847;48.058;7.810;2023-03-31T09:01:06;5.57;;;1.63;;
1699;SDS011;847;48.058;7.810;2023-03-31T09:03:43;5.83;;;2.20;;
1699;SDS011;847;48.058;7.810;2023-03-31T09:06:17;5.60;;;2.10;;
1699;SDS011;847;48.058;7.810;2023-03-31T09:08:47;3.97;;;1.60;;
1699;SDS011;847;48.058;7.810;2023-03-31T09:11:18;8.13;;;2.37;;
1699;SDS011;847;48.058;7.810;2023-03-31T09:14:04;5.17;;;1.83;;
1699;SDS011;847;48.058;7.810;2023-03-31T09:16:39;6.93;;;1.90;;
1699;SDS011;847;48.058;7.810;2023-03-31T09:19:12;5.33;;;1.20;;
1699;SDS011;847;48.058;7.810;2023-03-31T09:21:42;4.47;;;1.47;;
1699;SDS011;847;48.058;7.810;2023-03-31T09:24:11;4.10;;;1.20;;
1699;SDS011;847;48.058;7.810;2023-03-31T09:26:42;5.27;;;1.27;;
1699;SDS011;847;48.058;7.810;2023-03-31T09:29:14;4.53;;;1.50;;
1699;SDS011;847;48.058;7.810;2023-03-31T09:31:43;4.27;;;1.20;;
1699;SDS011;847;48.058;7.810;2023-03-31T09:34:14;4.23;;;1.50;;
1699;SDS011;847;48.058;7.810;2023-03-31T09:36:45;2.27;;;0.97;;
1699;SDS011;847;48.058;7.810;2023-03-31T09:39:12;4.23;;;1.70;;
1699;SDS011;847;48.058;7.810;2023-03-31T09:41:41;3.33;;;1.30;;
1699;SDS011;847;48.058;7.810;2023-03-31T09:44:15;3.80;;;1.03;;
1699;SDS011;847;48.058;7.810;2023-03-31T09:46:50;3.87;;;1.20;;
1699;SDS011;847;48.058;7.810;2023-03-31T09:49:18;5.77;;;1.33;;
1699;SDS011;847;48.058;7.810;2023-03-31T09:51:48;4.67;;;1.33;;
1699;SDS011;847;48.058;7.810;2023-03-31T09:54:24;6.77;;;1.40;;
1699;SDS011;847;48.058;7.810;2023-03-31T09:56:56;8.47;;;2.30;;
1699;SDS011;847;48.058;7.810;2023-03-31T09:59:29;6.50;;;1.67;;
1699;SDS011;847;48.058;7.810;2023-03-31T10:01:58;7.60;;;2.47;;
1699;SDS011;847;48.058;7.810;2023-03-31T10:04:29;6.93;;;1.87;;
1699;SDS011;847;48.058;7.810;2023-03-31T10:06:58;5.90;;;1.70;;
1699;SDS011;847;48.058;7.810;2023-03-31T10:09:26;6.10;;;1.47;;
1699;SDS011;847;48.058;7.810;2023-03-31T10:11:58;5.57;;;1.80;;
1699;SDS011;847;48.058;7.810;2023-03-31T10:14:34;3.50;;;1.73;;
1699;SDS011;847;48.058;7.810;2023-03-31T10:17:05;5.80;;;1.63;;
1699;SDS011;847;48.058;7.810;2023-03-31T10:19:33;6.33;;;1.70;;
1699;SDS011;847;48.058;7.810;2023-03-31T10:22:02;5.50;;;1.37;;
1699;SDS011;847;48.058;7.810;2023-03-31T10:24:35;4.97;;;2.00;;
1699;SDS011;847;48.058;7.810;2023-03-31T10:27:05;3.17;;;1.40;;
1699;SDS011;847;48.058;7.810;2023-03-31T10:29:43;6.60;;;1.77;;
1699;SDS011;847;48.058;7.810;2023-03-31T10:32:11;4.07;;;1.70;;
1699;SDS011;847;48.058;7.810;2023-03-31T10:34:43;5.07;;;1.53;;
1699;SDS011;847;48.058;7.810;2023-03-31T10:37:11;3.00;;;1.20;;
1699;SDS011;847;48.058;7.810;2023-03-31T10:39:42;8.00;;;2.00;;
1699;SDS011;847;48.058;7.810;2023-03-31T10:42:15;6.73;;;1.70;;
1699;SDS011;847;48.058;7.810;2023-03-31T10:44:46;5.17;;;1.57;;
1699;SDS011;847;48.058;7.810;2023-03-31T10:47:17;11.40;;;1.70;;
1699;SDS011;847;48.058;7.810;2023-03-31T10:49:47;6.10;;;1.43;;
1699;SDS011;847;48.058;7.810;2023-03-31T10:52:18;1.00;;;0.80;;
1699;SDS011;847;48.058;7.810;2023-03-31T10:54:47;0.90;;;0.50;;
1699;SDS011;847;48.058;7.810;2023-03-31T10:57:16;0.70;;;0.60;;
1699;SDS011;847;48.058;7.810;2023-03-31T10:59:51;2.20;;;0.60;;
1699;SDS011;847;48.058;7.810;2023-03-31T11:05:53;4.93;;;0.57;;
1699;SDS011;847;48.058;7.810;2023-03-31T11:08:32;0.73;;;0.40;;
1699;SDS011;847;48.058;7.810;2023-03-31T11:11:13;1.50;;;0.50;;
1699;SDS011;847;48.058;7.810;2023-03-31T11:13:55;1.30;;;0.67;;
1699;SDS011;847;48.058;7.810;2023-03-31T11:16:27;3.73;;;0.50;;
1699;SDS011;847;48.058;7.810;2023-03-31T11:21:55;1.07;;;0.60;;
1699;SDS011;847;48.058;7.810;2023-03-31T11:24:32;0.93;;;0.80;;
1699;SDS011;847;48.058;7.810;2023-03-31T11:27:19;3.10;;;1.60;;
1699;SDS011;847;48.058;7.810;2023-03-31T11:29:58;5.60;;;0.53;;
1699;SDS011;847;48.058;7.810;2023-03-31T11:32:31;2.30;;;0.60;;
1699;SDS011;847;48.058;7.810;2023-03-31T11:35:13;5.10;;;3.60;;
1699;SDS011;847;48.058;7.810;2023-03-31T11:37:56;5.20;;;3.17;;
1699;SDS011;847;48.058;7.810;2023-03-31T11:40:39;2.60;;;1.83;;
1699;SDS011;847;48.058;7.810;2023-03-31T11:43:16;5.10;;;1.90;;
1699;SDS011;847;48.058;7.810;2023-03-31T11:45:51;3.90;;;2.10;;
1699;SDS011;847;48.058;7.810;2023-03-31T11:48:25;7.83;;;1.80;;
1699;SDS011;847;48.058;7.810;2023-03-31T11:51:00;4.47;;;1.47;;
1699;SDS011;847;48.058;7.810;2023-03-31T11:53:30;8.53;;;1.67;;
1699;SDS011;847;48.058;7.810;2023-03-31T11:56:00;3.03;;;1.10;;
1699;SDS011;847;48.058;7.810;2023-03-31T11:58:29;4.43;;;1.73;;
1699;SDS011;847;48.058;7.810;2023-03-31T12:01:04;5.47;;;1.00;;
1699;SDS011;847;48.058;7.810;2023-03-31T12:03:39;2.80;;;1.13;;
1699;SDS011;847;48.058;7.810;2023-03-31T12:06:13;2.20;;;0.90;;
1699;SDS011;847;48.058;7.810;2023-03-31T12:08:45;3.17;;;1.00;;
1699;SDS011;847;48.058;7.810;2023-03-31T12:11:18;1.80;;;0.60;;
1699;SDS011;847;48.058;7.810;2023-03-31T12:13:52;3.17;;;0.67;;
1699;SDS011;847;48.058;7.810;2023-03-31T12:16:28;4.60;;;0.90;;
1699;SDS011;847;48.058;7.810;2023-03-31T12:19:04;9.03;;;1.23;;
1699;SDS011;847;48.058;7.810;2023-03-31T12:21:34;7.20;;;1.90;;
1699;SDS011;847;48.058;7.810;2023-03-31T12:24:08;4.03;;;1.40;;
1699;SDS011;847;48.058;7.810;2023-03-31T12:26:39;6.00;;;1.90;;
1699;SDS011;847;48.058;7.810;2023-03-31T12:29:16;2.50;;;1.30;;
1699;SDS011;847;48.058;7.810;2023-03-31T12:31:52;2.70;;;1.13;;
1699;SDS011;847;48.058;7.810;2023-03-31T12:34:21;3.67;;;1.07;;
1699;SDS011;847;48.058;7.810;2023-03-31T12:36:55;1.77;;;0.80;;
1699;SDS011;847;48.058;7.810;2023-03-31T12:39:40;3.23;;;1.10;;
1699;SDS011;847;48.058;7.810;2023-03-31T12:42:29;2.77;;;0.73;;
1699;SDS011;847;48.058;7.810;2023-03-31T12:45:12;5.17;;;1.20;;
1699;SDS011;847;48.058;7.810;2023-03-31T12:47:52;3.77;;;1.20;;
1699;SDS011;847;48.058;7.810;2023-03-31T12:50:34;2.50;;;1.07;;
1699;SDS011;847;48.058;7.810;2023-03-31T12:53:10;2.10;;;0.93;;
1699;SDS011;847;48.058;7.810;2023-03-31T12:55:43;2.37;;;1.00;;
1699;SDS011;847;48.058;7.810;2023-03-31T12:58:35;2.53;;;1.00;;
1699;SDS011;847;48.058;7.810;2023-03-31T13:01:05;9.00;;;1.20;;
1699;SDS011;847;48.058;7.810;2023-03-31T13:03:48;3.00;;;1.20;;
1699;SDS011;847;48.058;7.810;2023-03-31T13:09:39;4.50;;;1.53;;
1699;SDS011;847;48.058;7.810;2023-03-31T13:12:11;8.10;;;1.77;;
1699;SDS011;847;48.058;7.810;2023-03-31T13:14:41;6.10;;;1.43;;
1699;SDS011;847;48.058;7.810;2023-03-31T13:17:11;4.33;;;1.37;;
1699;SDS011;847;48.058;7.810;2023-03-31T13:20:17;5.37;;;1.50;;
1699;SDS011;847;48.058;7.810;2023-03-31T13:22:58;4.00;;;1.73;;
1699;SDS011;847;48.058;7.810;2023-03-31T13:25:32;3.20;;;1.30;;
1699;SDS011;847;48.058;7.810;2023-03-31T13:31:00;1.40;;;0.77;;
1699;SDS011;847;48.058;7.810;2023-03-31T13:36:35;3.03;;;0.90;;
1699;SDS011;847;48.058;7.810;2023-03-31T13:42:22;4.93;;;0.90;;
1699;SDS011;847;48.058;7.810;2023-03-31T13:45:17;3.60;;;0.70;;
1699;SDS011;847;48.058;7.810;2023-03-31T13:47:59;1.53;;;1.00;;
1699;SDS011;847;48.058;7.810;2023-03-31T13:50:55;2.70;;;0.70;;
1699;SDS011;847;48.058;7.810;2023-03-31T13:53:49;4.10;;;0.90;;
1699;SDS011;847;48.058;7.810;2023-03-31T14:16:53;3.20;;;0.70;;
1699;SDS011;847;48.058;7.810;2023-03-31T14:22:29;1.27;;;0.60;;
1699;SDS011;847;48.058;7.810;2023-03-31T14:25:08;5.57;;;1.60;;
1699;SDS011;847;48.058;7.810;2023-03-31T14:46:36;2.50;;;0.93;;
1699;SDS011;847;48.058;7.810;2023-03-31T15:18:24;1.90;;;1.07;;
1699;SDS011;847;48.058;7.810;2023-03-31T15:21:23;3.80;;;2.07;;
1699;SDS011;847;48.058;7.810;2023-03-31T15:24:23;4.83;;;0.90;;
1699;SDS011;847;48.058;7.810;2023-03-31T15:26:51;4.03;;;1.17;;
1699;SDS011;847;48.058;7.810;2023-03-31T15:29:40;6.57;;;1.27;;
1699;SDS011;847;48.058;7.810;2023-03-31T15:32:18;2.23;;;1.90;;
1699;SDS011;847;48.058;7.810;2023-03-31T15:34:51;3.80;;;1.20;;
1699;SDS011;847;48.058;7.810;2023-03-31T15:37:55;2.40;;;1.30;;
1699;SDS011;847;48.058;7.810;2023-03-31T15:40:39;2.20;;;1.00;;
1699;SDS011;847;48.058;7.810;2023-03-31T15:43:14;2.20;;;1.07;;
1699;SDS011;847;48.058;7.810;2023-03-31T15:52:15;3.77;;;1.50;;
1699;SDS011;847;48.058;7.810;2023-03-31T15:55:24;2.97;;;1.17;;
1699;SDS011;847;48.058;7.810;2023-03-31T19:34:14;4.53;;;1.10;;
1699;SDS011;847;48.058;7.810;2023-03-31T20:00:31;2.27;;;0.90;;
1699;SDS011;847;48.058;7.810;2023-03-31T20:03:00;4.63;;;1.27;;
1699;SDS011;847;48.058;7.810;2023-03-31T20:05:27;3.07;;;0.90;;
1699;SDS011;847;48.058;7.810;2023-03-31T21:38:40;4.57;;;1.67;;
1699;SDS011;847;48.058;7.810;2023-03-31T21:41:08;5.13;;;1.83;;
1699;SDS011;847;48.058;7.810;2023-03-31T21:43:36;6.57;;;1.40;;
1699;SDS011;847;48.058;7.810;2023-03-31T21:46:03;5.20;;;1.40;;
1699;SDS011;847;48.058;7.810;2023-03-31T22:28:03;7.30;;;1.47;;
1699;SDS011;847;48.058;7.810;2023-03-31T22:46:04;4.03;;;1.30;;
1699;SDS011;847;48.058;7.810;2023-03-31T22:48:33;10.00;;;1.80;;
1699;SDS011;847;48.058;7.810;2023-03-31T22:51:01;2.00;;;0.90;;
1699;SDS011;847;48.058;7.810;2023-03-31T22:53:30;2.77;;;1.20;;
1699;SDS011;847;48.058;7.810;2023-03-31T22:56:12;3.27;;;1.30;;
1699;SDS011;847;48.058;7.810;2023-03-31T22:58:39;3.87;;;1.20;;
1699;SDS011;847;48.058;7.810;2023-03-31T23:14:05;3.77;;;1.07;;
1699;SDS011;847;48.058;7.810;2023-03-31T23:16:32;2.40;;;0.80;;
1699;SDS011;847;48.058;7.810;2023-03-31T23:18:59;2.77;;;1.00;;
1699;SDS011;847;48.058;7.810;2023-03-31T23:21:26;2.03;;;0.70;;
1699;SDS011;847;48.058;7.810;2023-03-31T23:23:55;1.90;;;0.80;;
1699;SDS011;847;48.058;7.810;2023-03-31T23:26:25;2.40;;;1.03;;
1699;SDS011;847;48.058;7.810;2023-03-31T23:28:53;2.03;;;0.40;;
1699;SDS011;847;48.058;7.810;2023-03-31T23:31:22;0.80;;;0.50;;
1699;SDS011;847;48.058;7.810;2023-03-31T23:33:51;2.37;;;0.70;;
1699;SDS011;847;48.058;7.810;2023-03-31T23:36:18;0.50;;;0.40;;
1699;SDS011;847;48.058;7.810;2023-03-31T23:38:45;0.50;;;0.40;;
1699;SDS011;847;48.058;7.810;2023-03-31T23:41:13;1.30;;;0.70;;
1699;SDS011;847;48.058;7.810;2023-03-31T23:43:42;1.67;;;0.50;;
1699;SDS011;847;48.058;7.810;2023-03-31T23:46:30;3.10;;;0.47;;
1699;SDS011;847;48.058;7.810;2023-03-31T23:48:57;2.23;;;0.83;;
1699;SDS011;847;48.058;7.810;2023-03-31T23:51:26;2.13;;;0.80;;
1699;SDS011;847;48.058;7.810;2023-03-31T23:53:53;1.17;;;0.60;;
1699;SDS011;847;48.058;7.810;2023-03-31T23:56:21;3.87;;;0.70;;
1699;SDS011;847;48.058;7.810;2023-03-31T23:58:49;1.47;;;0.70;;
